Time;durP1;ratioP1;P1;durP2;ratioP2;P2;SDS_P1;SDS_P2;PMS_P1;PMS_P2;Temp;Humidity;BMP_temperature;BMP_pressure;BME280_temperature;BME280_humidity;BME280_pressure;Samples;Min_cycle;Max_cycle;Signal;HPM_P1;HPM_P2
2022/02/02 00:01:29;;;;;;;9.80;5.30;;;;;;;-5.33;66.14;97616.33;105148;1271;74615;-23
2022/02/02 00:03:59;;;;;;;11.40;4.90;;;;;;;-5.50;66.81;97618.70;104821;1271;74535;-23
2022/02/02 00:06:38;;;;;;;7.70;4.60;;;;;;;-5.73;67.52;97618.06;104945;1271;72980;-23
2022/02/02 00:09:12;;;;;;;10.50;4.20;;;;;;;-5.87;68.14;97617.23;104948;1271;62057;-23
2022/02/02 00:14:26;;;;;;;8.10;3.90;;;;;;;-6.08;69.26;97614.52;105148;1271;75554;-23
2022/02/02 00:17:01;;;;;;;4.90;3.60;;;;;;;-6.16;69.48;97611.39;105035;1270;74550;-23
2022/02/02 00:22:07;;;;;;;12.60;4.20;;;;;;;-5.33;66.92;97618.05;105378;1270;61058;-22
2022/02/02 00:27:10;;;;;;;13.10;5.80;;;;;;;-5.40;66.92;97610.19;105360;1271;74477;-23
2022/02/02 00:29:44;;;;;;;7.40;4.00;;;;;;;-5.59;67.65;97603.81;105289;1271;76045;-23
2022/02/02 00:34:48;;;;;;;7.30;4.10;;;;;;;-5.81;69.03;97599.45;105133;1271;62051;-23
2022/02/02 00:37:17;;;;;;;7.80;3.80;;;;;;;-5.91;69.04;97595.58;105139;1271;61147;-23
2022/02/02 00:39:46;;;;;;;5.50;2.80;;;;;;;-5.94;69.36;97592.50;105237;1271;73999;-23
2022/02/02 00:42:14;;;;;;;4.00;2.40;;;;;;;-5.83;69.89;97591.55;104943;1271;75083;-23
2022/02/02 00:44:48;;;;;;;6.40;3.30;;;;;;;-5.25;68.14;97589.65;104963;1271;74411;-23
2022/02/02 00:47:22;;;;;;;5.70;2.80;;;;;;;-4.89;67.28;97591.75;104930;1271;61149;-24
2022/02/02 00:49:52;;;;;;;1.20;1.00;;;;;;;-4.87;67.05;97589.63;104927;1271;61213;-23
2022/02/02 00:52:21;;;;;;;4.90;1.80;;;;;;;-5.05;66.96;97578.35;104858;1271;75484;-23
2022/02/02 00:54:49;;;;;;;3.70;2.40;;;;;;;-5.15;67.13;97572.33;105156;1271;76168;-23
2022/02/02 00:57:18;;;;;;;5.20;3.10;;;;;;;-5.25;67.69;97573.92;105381;1271;73448;-23
2022/02/02 00:59:46;;;;;;;4.30;2.20;;;;;;;-5.38;68.21;97570.88;105255;1271;61855;-23
2022/02/02 01:02:15;;;;;;;4.10;2.80;;;;;;;-5.50;68.71;97564.75;105348;1269;61019;-23
2022/02/02 01:04:43;;;;;;;4.90;2.10;;;;;;;-5.63;69.27;97559.52;105094;1270;75585;-23
2022/02/02 01:07:20;;;;;;;4.90;3.10;;;;;;;-5.70;69.79;97561.29;105260;1271;74789;-22
2022/02/02 01:10:04;;;;;;;5.60;2.50;;;;;;;-5.73;70.12;97556.84;104965;1272;74489;-24
2022/02/02 01:12:47;;;;;;;9.20;2.70;;;;;;;-5.21;69.19;97551.91;104945;1271;61135;-22
2022/02/02 01:20:51;;;;;;;8.40;2.60;;;;;;;-4.57;66.17;97533.95;105291;1270;75964;-22
2022/02/02 01:28:38;;;;;;;5.60;3.10;;;;;;;-5.16;67.86;97529.37;104961;1271;61111;-24
2022/02/02 01:31:07;;;;;;;19.50;3.30;;;;;;;-5.28;68.07;97523.24;104949;1271;73572;-22
2022/02/02 01:33:35;;;;;;;5.30;3.20;;;;;;;-5.37;68.61;97519.23;105043;1271;75937;-23
2022/02/02 01:36:05;;;;;;;11.10;3.70;;;;;;;-5.48;69.13;97511.41;105004;1270;73201;-22
2022/02/02 01:38:35;;;;;;;5.70;3.10;;;;;;;-5.32;69.68;97511.92;105272;1271;62424;-22
2022/02/02 01:41:09;;;;;;;14.80;4.40;;;;;;;-4.71;68.06;97508.50;105409;1271;61445;-22
2022/02/02 01:43:45;;;;;;;7.80;3.40;;;;;;;-4.51;67.07;97504.08;105411;1270;76091;-22
2022/02/02 01:46:17;;;;;;;7.60;2.80;;;;;;;-4.57;67.14;97493.83;105382;1271;75994;-23
2022/02/02 01:49:02;;;;;;;14.40;5.40;;;;;;;-4.73;67.44;97489.44;105189;1271;72281;-22
2022/02/02 01:51:52;;;;;;;3.80;2.50;;;;;;;-4.88;67.97;97485.90;105412;1271;61425;-22
2022/02/02 01:57:02;;;;;;;11.50;3.80;;;;;;;-5.16;68.90;97472.20;105289;1269;74487;-22
2022/02/02 01:59:49;;;;;;;8.40;4.00;;;;;;;-5.28;69.56;97475.58;105001;1271;74179;-22
2022/02/02 02:02:18;;;;;;;13.60;6.30;;;;;;;-5.09;69.92;97474.89;104948;1271;73018;-24
2022/02/02 02:04:48;;;;;;;6.10;3.30;;;;;;;-4.45;68.13;97471.95;104953;1269;61029;-23
2022/02/02 02:07:16;;;;;;;6.70;3.00;;;;;;;-4.27;67.10;97465.38;104987;1271;61014;-24
2022/02/02 02:09:45;;;;;;;11.00;4.80;;;;;;;-4.34;67.21;97463.83;104979;1271;75353;-24
2022/02/02 02:12:13;;;;;;;11.20;4.40;;;;;;;-4.51;67.87;97464.45;104976;1270;75719;-24
2022/02/02 02:17:12;;;;;;;8.40;3.40;;;;;;;-4.87;69.20;97466.20;105239;1270;62095;-24
2022/02/02 02:19:46;;;;;;;14.10;5.70;;;;;;;-4.99;69.40;97468.42;105037;1271;61057;-22
2022/02/02 02:22:28;;;;;;;10.00;5.30;;;;;;;-5.09;69.90;97466.13;104936;1271;75528;-24
2022/02/02 02:24:57;;;;;;;10.20;3.70;;;;;;;-4.79;70.23;97460.40;104898;1271;76354;-24
2022/02/02 02:27:26;;;;;;;10.30;5.40;;;;;;;-4.31;68.86;97455.05;104893;1271;74143;-24
2022/02/02 02:35:39;;;;;;;10.70;4.30;;;;;;;-4.52;68.84;97455.14;104915;1270;75543;-23
2022/02/02 02:57:56;;;;;;;8.30;2.60;;;;;;;-4.55;69.73;97439.22;105011;1272;61003;-24
2022/02/02 03:00:51;;;;;;;5.90;3.00;;;;;;;-4.67;70.05;97438.35;104996;1271;61082;-23
2022/02/02 03:30:51;;;;;;;6.30;3.80;;;;;;;-3.48;67.90;97409.52;105123;1271;74335;-22
2022/02/02 03:55:03;;;;;;;9.70;5.20;;;;;;;-3.58;67.44;97377.77;105160;1271;61057;-23
2022/02/02 03:58:26;;;;;;;10.80;5.10;;;;;;;-3.79;67.80;97371.38;104975;1270;75813;-23
2022/02/02 04:00:37;;;;;;;4.60;3.50;;;;;;;-4.01;68.06;97367.33;104859;1270;75820;-24
2022/02/02 04:05:55;;;;;;;14.50;6.60;;;;;;;-4.38;68.72;97363.36;105079;1270;61172;-23
2022/02/02 04:10:54;;;;;;;8.20;3.40;;;;;;;-4.44;69.41;97360.10;104986;1271;74594;-22
2022/02/02 04:38:31;;;;;;;13.30;5.50;;;;;;;-3.92;68.34;97346.38;105082;1271;75467;-23
2022/02/02 04:54:52;;;;;;;12.30;4.70;;;;;;;-3.67;68.81;97350.40;105324;1271;75804;-23
2022/02/02 04:58:00;;;;;;;13.20;5.70;;;;;;;-3.74;69.29;97345.21;105154;1271;74230;-23
2022/02/02 05:06:35;;;;;;;12.60;6.30;;;;;;;-4.34;71.54;97341.30;104956;1271;74687;-23
2022/02/02 05:08:49;;;;;;;15.00;7.30;;;;;;;-4.44;72.72;97340.95;104785;1271;74488;-24
2022/02/02 05:11:37;;;;;;;17.30;6.20;;;;;;;-3.96;71.55;97336.56;104925;1271;74321;-23
2022/02/02 05:17:14;;;;;;;15.30;4.70;;;;;;;-3.90;70.63;97338.30;104763;1271;61121;-23
2022/02/02 05:49:54;;;;;;;15.60;7.00;;;;;;;-3.97;73.22;97341.21;104899;1271;76061;-23
2022/02/02 05:52:23;;;;;;;22.40;6.90;;;;;;;-4.17;74.13;97348.63;104883;1271;73782;-23
2022/02/02 05:54:51;;;;;;;16.50;8.90;;;;;;;-4.27;74.62;97347.42;105034;1271;61098;-23
2022/02/02 05:57:20;;;;;;;22.90;10.30;;;;;;;-3.97;74.91;97349.00;105351;1271;62039;-23
2022/02/02 05:59:49;;;;;;;12.90;7.10;;;;;;;-3.59;73.61;97352.88;105274;1271;74162;-23
2022/02/02 06:02:17;;;;;;;13.80;7.30;;;;;;;-3.62;73.42;97345.92;104888;1272;75779;-23
2022/02/02 06:04:47;;;;;;;16.90;6.60;;;;;;;-3.71;73.80;97343.17;104772;1271;74186;-23
2022/02/02 06:07:19;;;;;;;17.60;8.40;;;;;;;-3.89;74.67;97338.25;105101;1271;61814;-23
2022/02/02 06:09:49;;;;;;;12.70;5.00;;;;;;;-4.00;75.03;97337.32;105327;1270;61840;-23
2022/02/02 06:12:19;;;;;;;11.20;6.60;;;;;;;-3.78;75.85;97331.11;105147;1271;74318;-23
2022/02/02 06:15:12;;;;;;;13.50;7.00;;;;;;;-3.14;73.72;97319.70;105113;1271;75928;-23
2022/02/02 06:17:46;;;;;;;15.30;6.40;;;;;;;-3.06;73.29;97313.52;105166;1271;73716;-23
2022/02/02 06:20:14;;;;;;;14.20;5.80;;;;;;;-3.21;73.67;97315.98;104974;1271;61081;-21
2022/02/02 06:22:54;;;;;;;10.10;6.00;;;;;;;-3.41;74.61;97318.89;104912;1270;61078;-24
2022/02/02 06:25:25;;;;;;;17.90;9.10;;;;;;;-3.58;75.47;97317.07;104836;1271;75379;-23
2022/02/02 06:28:06;;;;;;;20.90;10.10;;;;;;;-3.58;76.07;97315.16;105150;1271;75749;-23
2022/02/02 06:30:35;;;;;;;19.70;8.90;;;;;;;-3.02;74.64;97317.16;105162;1271;74351;-24
2022/02/02 06:33:09;;;;;;;14.50;6.50;;;;;;;-2.84;73.56;97320.12;105325;1270;61048;-22
2022/02/02 06:35:38;;;;;;;17.40;6.80;;;;;;;-2.98;73.93;97315.45;105115;1271;62337;-23
2022/02/02 06:38:06;;;;;;;16.40;8.30;;;;;;;-3.12;74.62;97318.21;105102;1270;75570;-24
2022/02/02 06:40:37;;;;;;;19.40;8.80;;;;;;;-3.30;75.18;97307.94;105023;1269;75002;-23
2022/02/02 06:43:06;;;;;;;17.60;8.90;;;;;;;-3.32;75.89;97315.86;104899;1271;75972;-24
2022/02/02 06:45:35;;;;;;;25.50;12.10;;;;;;;-2.87;74.47;97318.08;104989;1271;60950;-22
2022/02/02 06:48:04;;;;;;;17.30;7.10;;;;;;;-2.74;73.83;97313.13;105042;1270;61340;-22
2022/02/02 06:50:38;;;;;;;20.50;11.40;;;;;;;-2.87;74.01;97308.21;104995;1270;75004;-24
2022/02/02 06:53:20;;;;;;;19.60;8.50;;;;;;;-3.06;74.63;97303.45;104976;1271;75914;-23
2022/02/02 06:56:29;;;;;;;19.00;8.80;;;;;;;-3.31;75.69;97303.27;104937;1271;74566;-22
2022/02/02 06:59:27;;;;;;;16.10;7.10;;;;;;;-2.84;74.76;97309.73;104896;1271;61131;-22
2022/02/02 07:02:10;;;;;;;20.10;9.90;;;;;;;-2.51;73.48;97305.25;105043;1271;61829;-22
2022/02/02 07:13:54;;;;;;;17.40;7.30;;;;;;;-2.96;74.60;97304.48;104869;1271;61108;-23
2022/02/02 07:22:05;;;;;;;16.90;8.70;;;;;;;-2.80;73.56;97302.23;104579;1277;76049;-25
2022/02/02 07:30:12;;;;;;;12.40;5.80;;;;;;;-2.15;72.25;97309.68;104661;1277;61156;-22
2022/02/02 07:32:48;;;;;;;16.80;8.10;;;;;;;-2.06;71.33;97302.19;104641;1277;75648;-24
2022/02/02 07:37:57;;;;;;;14.80;6.60;;;;;;;-2.32;71.95;97298.23;104590;1277;74802;-24
2022/02/02 07:40:26;;;;;;;8.70;6.10;;;;;;;-2.51;72.35;97297.42;104291;1277;61211;-22
2022/02/02 07:42:56;;;;;;;12.90;7.00;;;;;;;-2.68;73.19;97299.57;104339;1277;61813;-22
2022/02/02 07:45:24;;;;;;;20.80;8.50;;;;;;;-2.34;72.92;97305.96;104260;1277;75790;-22
2022/02/02 07:48:00;;;;;;;10.90;6.50;;;;;;;-1.97;71.53;97306.27;104511;1277;74828;-22
2022/02/02 07:50:33;;;;;;;16.30;9.40;;;;;;;-1.85;70.71;97305.23;103878;1277;73478;-24
2022/02/02 07:53:08;;;;;;;11.10;5.70;;;;;;;-2.01;71.00;97306.19;104574;1277;61409;-22
2022/02/02 07:55:39;;;;;;;18.00;9.00;;;;;;;-2.12;71.61;97307.63;104284;1271;61104;-22
2022/02/02 07:58:07;;;;;;;16.60;8.80;;;;;;;-2.24;71.88;97307.13;104885;1271;75866;-22
2022/02/02 08:00:36;;;;;;;15.60;8.10;;;;;;;-2.34;72.52;97309.22;105008;1271;76346;-24
2022/02/02 08:03:09;;;;;;;14.90;7.00;;;;;;;-1.99;72.13;97310.14;105272;1270;73199;-22
2022/02/02 08:05:42;;;;;;;16.40;6.60;;;;;;;-1.55;70.40;97306.16;105254;1271;61658;-22
2022/02/02 08:10:48;;;;;;;10.10;5.90;;;;;;;-1.58;69.66;97301.95;105262;1271;75525;-23
2022/02/02 08:13:24;;;;;;;18.40;8.70;;;;;;;-1.76;70.25;97300.28;105242;1271;74492;-24
2022/02/02 08:16:02;;;;;;;11.10;5.50;;;;;;;-1.93;70.71;97300.56;104994;1271;74158;-24
2022/02/02 08:18:31;;;;;;;24.70;9.00;;;;;;;-2.05;71.21;97294.46;105144;1271;61148;-24
2022/02/02 08:20:59;;;;;;;18.30;9.10;;;;;;;-1.99;72.02;97296.30;105239;1271;61064;-25
2022/02/02 08:23:29;;;;;;;14.50;8.40;;;;;;;-1.35;69.84;97290.36;105159;1271;73302;-23
2022/02/02 08:25:59;;;;;;;14.90;6.20;;;;;;;-1.13;68.86;97296.15;105274;1271;76186;-22
2022/02/02 08:28:28;;;;;;;20.70;8.60;;;;;;;-1.23;68.55;97296.95;105185;1271;74787;-22
2022/02/02 08:30:57;;;;;;;10.10;7.00;;;;;;;-1.48;69.58;97297.63;104967;1272;61044;-24
2022/02/02 08:33:32;;;;;;;14.40;7.60;;;;;;;-1.50;69.32;97295.83;105067;1271;61045;-24
2022/02/02 08:36:03;;;;;;;17.00;9.70;;;;;;;-1.56;69.44;97293.63;104995;1271;74645;-21
2022/02/02 08:38:42;;;;;;;22.80;9.40;;;;;;;-1.60;69.67;97291.84;105012;1271;75702;-25
2022/02/02 08:41:16;;;;;;;18.30;9.90;;;;;;;-1.71;70.11;97288.77;104994;1271;72904;-24
2022/02/02 08:43:52;;;;;;;16.80;9.50;;;;;;;-1.35;69.57;97289.50;104953;1271;61768;-23
2022/02/02 08:46:33;;;;;;;13.30;7.30;;;;;;;-0.95;67.61;97285.39;104993;1271;61118;-20
2022/02/02 08:49:04;;;;;;;10.60;6.40;;;;;;;-0.94;67.79;97283.60;104999;1271;75671;-24
2022/02/02 08:51:40;;;;;;;13.10;5.50;;;;;;;-0.98;67.52;97285.33;104800;1271;239492;-24
2022/02/02 09:02:07;;;;;;;20.90;11.60;;;;;;;-1.29;68.45;97278.05;105227;1271;75445;-26
2022/02/02 09:07:23;;;;;;;21.90;9.50;;;;;;;-1.41;68.42;97272.52;105135;1271;73359;-25
2022/02/02 09:31:26;;;;;;;13.50;8.10;;;;;;;-0.98;66.76;97261.85;104724;1271;61380;-22
2022/02/02 09:34:42;;;;;;;19.00;9.80;;;;;;;-1.29;67.12;97252.90;105280;1271;74120;-25
2022/02/02 09:37:11;;;;;;;13.10;6.80;;;;;;;-1.35;67.61;97244.04;105239;1270;61025;-24
2022/02/02 09:39:46;;;;;;;17.80;6.50;;;;;;;-1.34;67.56;97241.80;105308;1271;61006;-24
2022/02/02 09:42:18;;;;;;;15.70;7.70;;;;;;;-1.11;66.96;97231.33;105346;1271;72788;-24
2022/02/02 09:44:51;;;;;;;12.40;6.80;;;;;;;-0.47;65.16;97236.13;105164;1271;73216;-23
2022/02/02 09:47:28;;;;;;;16.10;7.90;;;;;;;-0.29;64.68;97224.23;105068;1271;74464;-22
2022/02/02 09:50:03;;;;;;;20.40;6.50;;;;;;;-0.34;63.81;97227.11;104935;1271;61115;-23
2022/02/02 09:52:39;;;;;;;18.50;8.70;;;;;;;-0.52;64.57;97226.55;104977;1271;61082;-23
2022/02/02 09:55:15;;;;;;;16.60;9.60;;;;;;;-0.57;64.36;97225.18;105096;1271;75685;-23
2022/02/02 09:57:57;;;;;;;15.60;7.60;;;;;;;-0.74;64.85;97226.80;105357;1271;74993;-24
2022/02/02 10:06:15;;;;;;;15.30;7.20;;;;;;;-0.84;65.16;97222.30;104912;1269;62279;-23
2022/02/02 10:12:19;;;;;;;11.10;5.30;;;;;;;-0.79;65.26;97225.38;105016;1271;73770;-23
2022/02/02 10:16:57;;;;;;;16.30;6.20;;;;;;;-0.84;65.19;97218.76;101494;1309;600954;-24
2022/02/02 10:19:25;;;;;;;19.70;8.80;;;;;;;-0.78;65.38;97215.77;103920;1286;61165;-24
2022/02/02 10:21:55;;;;;;;11.00;5.20;;;;;;;-0.74;65.27;97211.61;104629;1279;61959;-24
2022/02/02 10:24:44;;;;;;;15.60;6.70;;;;;;;-0.67;65.28;97204.00;104639;1278;73688;-24
2022/02/02 10:27:34;;;;;;;19.50;10.00;;;;;;;-0.71;65.30;97207.83;104631;1279;74702;-24
2022/02/02 10:30:16;;;;;;;11.40;6.40;;;;;;;-0.73;65.15;97205.94;104443;1276;270128;-24
2022/02/02 10:32:47;;;;;;;22.20;9.10;;;;;;;-0.73;65.26;97200.13;104731;1276;61055;-21
2022/02/02 10:35:38;;;;;;;19.10;8.10;;;;;;;-0.72;65.02;97197.52;104536;1276;62148;-22
2022/02/02 10:38:27;;;;;;;16.60;7.90;;;;;;;-0.68;64.53;97183.95;104631;1276;73874;-23
2022/02/02 10:41:14;;;;;;;17.30;8.00;;;;;;;-0.70;64.53;97183.45;104677;1276;74292;-24
2022/02/02 10:44:07;;;;;;;10.40;6.20;;;;;;;-0.70;64.44;97187.52;104503;1276;73549;-23
2022/02/02 10:46:51;;;;;;;9.10;5.50;;;;;;;-0.74;64.27;97190.65;104505;1276;61072;-23
2022/02/02 10:52:26;;;;;;;8.60;5.20;;;;;;;-0.82;64.68;97191.48;104603;1276;74678;-23
2022/02/02 10:58:06;;;;;;;7.90;5.30;;;;;;;-0.82;64.61;97190.83;104435;1276;74757;-23
2022/02/02 11:01:33;;;;;;;9.90;6.10;;;;;;;-0.86;64.64;97186.15;104611;1276;61147;-23
2022/02/02 11:06:43;;;;;;;9.80;5.60;;;;;;;-0.90;64.60;97180.61;104706;1276;74772;-24
2022/02/02 11:09:17;;;;;;;18.30;8.80;;;;;;;-0.88;65.04;97184.59;104687;1276;75712;-23
2022/02/02 11:11:49;;;;;;;9.30;5.40;;;;;;;-0.85;64.99;97177.17;104717;1276;73382;-23
2022/02/02 11:14:52;;;;;;;15.20;6.30;;;;;;;-0.83;65.19;97182.71;104662;1276;61168;-23
2022/02/02 11:17:29;;;;;;;17.40;7.80;;;;;;;-0.85;65.05;97187.41;104464;1276;62227;-23
2022/02/02 11:20:03;;;;;;;10.30;5.90;;;;;;;-0.90;65.25;97186.91;104404;1276;75397;-24
2022/02/02 11:22:35;;;;;;;17.30;8.20;;;;;;;-0.84;65.09;97179.17;104343;1276;74942;-23
2022/02/02 11:25:03;;;;;;;23.90;8.90;;;;;;;-0.85;65.20;97182.13;104685;1276;72982;-23
2022/02/02 11:27:39;;;;;;;7.50;4.20;;;;;;;-0.82;65.25;97185.19;104679;1276;61181;-23
2022/02/02 11:30:08;;;;;;;15.10;7.50;;;;;;;-0.74;65.20;97181.10;104705;1276;61309;-24
2022/02/02 11:32:45;;;;;;;9.70;5.80;;;;;;;-0.66;65.46;97188.45;104698;1276;73815;-23
2022/02/02 11:35:52;;;;;;;10.50;6.50;;;;;;;-0.57;65.18;97187.15;104609;1276;76231;-22
2022/02/02 11:38:39;;;;;;;11.40;6.40;;;;;;;0.15;63.24;97190.77;104543;1276;72830;-23
2022/02/02 11:41:21;;;;;;;10.80;5.20;;;;;;;0.26;62.52;97177.86;104402;1276;61159;-23
2022/02/02 11:49:53;;;;;;;10.90;6.70;;;;;;;-0.13;64.46;97181.88;104709;1276;76911;-23
2022/02/02 11:52:38;;;;;;;11.20;6.30;;;;;;;-0.28;65.36;97182.22;104665;1276;74258;-23
2022/02/02 11:55:27;;;;;;;15.40;7.10;;;;;;;-0.29;65.69;97174.44;104693;1276;61081;-23
2022/02/02 11:58:16;;;;;;;12.40;5.00;;;;;;;-0.34;66.15;97182.25;105146;1273;61709;-23
2022/02/02 12:01:40;;;;;;;8.60;4.70;;;;;;;-0.53;67.91;97179.57;105045;1273;74343;-23
2022/02/02 12:09:11;;;;;;;13.40;7.40;;;;;;;0.21;69.07;97194.44;104645;1273;61340;-23
2022/02/02 12:48:46;;;;;;;11.80;5.00;;;;;;;0.16;76.32;97207.90;105011;1273;74426;-22
2022/02/02 12:56:55;;;;;;;9.30;4.20;;;;;;;-0.07;76.63;97210.80;105090;1273;74448;-22
2022/02/02 13:02:17;;;;;;;8.20;5.90;;;;;;;0.13;76.97;97223.83;104816;1274;74136;-22
2022/02/02 13:04:50;;;;;;;7.30;5.30;;;;;;;0.50;75.27;97224.05;104764;1273;62033;-22
2022/02/02 13:07:20;;;;;;;7.90;5.40;;;;;;;0.26;75.76;97226.18;104610;1273;62042;-24
2022/02/02 13:09:50;;;;;;;10.50;5.20;;;;;;;-0.17;77.86;97225.48;104679;1273;72900;-24
2022/02/02 13:12:35;;;;;;;10.00;5.70;;;;;;;-0.28;78.60;97229.08;104657;1273;72053;-23
2022/02/02 13:16:13;;;;;;;10.50;5.60;;;;;;;0.03;78.42;97229.42;104690;1273;73706;-24
2022/02/02 13:23:34;;;;;;;13.60;6.80;;;;;;;-0.05;77.76;97229.95;104622;1273;74792;-24
2022/02/02 13:26:07;;;;;;;16.70;7.70;;;;;;;-0.13;78.08;97230.86;104851;1273;75005;-24
2022/02/02 13:28:43;;;;;;;7.90;5.20;;;;;;;0.18;76.86;97236.81;105038;1273;72742;-23
2022/02/02 13:31:36;;;;;;;9.50;5.20;;;;;;;0.25;76.43;97227.98;105034;1273;61317;-23
2022/02/02 13:35:06;;;;;;;9.60;5.90;;;;;;;0.13;76.26;97220.53;105025;1272;61722;-23
2022/02/02 13:46:05;;;;;;;8.40;4.40;;;;;;;0.27;75.11;97224.70;105029;1273;61107;-23
2022/02/02 14:05:24;;;;;;;9.90;4.50;;;;;;;-0.08;74.82;97236.67;105099;1273;73719;-23
2022/02/02 14:08:56;;;;;;;10.00;4.90;;;;;;;0.06;74.78;97238.27;105024;1273;75122;-23
2022/02/02 14:33:14;;;;;;;10.80;4.80;;;;;;;0.70;70.57;97263.47;105106;1273;74010;-22
2022/02/02 14:35:45;;;;;;;8.10;4.80;;;;;;;0.50;71.14;97262.59;105185;1273;74959;-22
2022/02/02 14:38:15;;;;;;;7.80;4.30;;;;;;;0.33;71.41;97264.63;105095;1273;73138;-23
2022/02/02 14:41:16;;;;;;;5.70;2.90;;;;;;;0.08;72.54;97265.45;105057;1273;61167;-23
2022/02/02 14:43:56;;;;;;;8.60;5.90;;;;;;;0.45;71.73;97267.55;105038;1273;61042;-23
2022/02/02 14:47:19;;;;;;;11.40;5.10;;;;;;;0.87;70.36;97270.35;104954;1274;73281;-23
2022/02/02 14:49:23;;;;;;;10.00;4.30;;;;;;;0.81;69.96;97271.27;105005;1275;76406;-23
2022/02/02 15:29:56;;;;;;;7.00;4.00;;;;;;;0.96;68.77;97289.84;105106;1273;75762;-25
2022/02/02 15:32:27;;;;;;;10.80;5.60;;;;;;;0.73;69.56;97294.67;105137;1272;72765;-23
2022/02/02 15:34:58;;;;;;;7.60;4.70;;;;;;;0.56;70.29;97299.96;105079;1273;61835;-22
2022/02/02 15:59:36;;;;;;;6.90;3.70;;;;;;;0.73;73.62;97329.50;104729;1273;72959;-24
2022/02/02 16:04:42;;;;;;;5.50;3.60;;;;;;;1.14;71.70;97324.52;104703;1274;61149;-23
2022/02/02 16:07:20;;;;;;;5.20;3.00;;;;;;;0.96;72.35;97326.45;104761;1272;75639;-23
2022/02/02 16:09:55;;;;;;;6.90;3.30;;;;;;;0.77;72.99;97338.17;104744;1272;76038;-22
2022/02/02 16:12:30;;;;;;;7.10;3.10;;;;;;;0.59;73.83;97336.64;104749;1274;74351;-24
2022/02/02 16:31:34;;;;;;;7.90;3.40;;;;;;;0.42;75.65;97343.77;104719;1273;61100;-24
2022/02/02 16:34:43;;;;;;;3.10;2.40;;;;;;;0.78;75.43;97349.20;104712;1274;75294;-22
2022/02/02 16:37:07;;;;;;;4.60;2.60;;;;;;;1.17;74.47;97348.91;104704;1273;75968;-23
2022/02/02 16:39:47;;;;;;;4.00;2.90;;;;;;;1.16;74.60;97352.22;104724;1273;73398;-23
2022/02/02 16:45:04;;;;;;;4.80;2.90;;;;;;;0.50;78.72;97355.55;105080;1273;61874;-23
2022/02/02 16:47:33;;;;;;;4.90;2.70;;;;;;;0.52;80.01;97358.81;104767;1273;74590;-23
2022/02/02 16:50:22;;;;;;;7.00;2.60;;;;;;;0.96;78.53;97366.95;104618;1274;74758;-23
2022/02/02 16:52:55;;;;;;;5.40;3.40;;;;;;;0.92;78.64;97368.73;104706;1274;74373;-23
2022/02/02 16:55:35;;;;;;;8.40;4.80;;;;;;;0.79;79.08;97372.15;104673;1273;61079;-23
2022/02/02 17:31:32;;;;;;;4.60;3.00;;;;;;;1.10;80.01;97380.52;104781;1274;76174;-22
2022/02/02 17:34:16;;;;;;;3.70;2.40;;;;;;;1.07;79.72;97378.66;104630;1274;72968;-22
2022/02/02 17:37:23;;;;;;;4.20;2.70;;;;;;;0.86;80.56;97379.91;104632;1274;61154;-22
2022/02/02 17:39:44;;;;;;;5.00;1.50;;;;;;;0.61;81.51;97379.70;104696;1274;61062;-22
2022/02/02 17:42:36;;;;;;;4.10;2.60;;;;;;;0.82;81.83;97378.83;104725;1273;75594;-22
2022/02/02 17:45:30;;;;;;;3.00;2.00;;;;;;;1.39;79.70;97376.94;104721;1274;76920;-22
2022/02/02 17:56:39;;;;;;;8.10;2.20;;;;;;;0.91;81.54;97382.79;104632;1273;75302;-22
2022/02/02 18:18:58;;;;;;;1.80;1.30;;;;;;;1.19;80.39;97384.00;104626;1274;61098;-22
2022/02/02 18:21:29;;;;;;;4.10;1.70;;;;;;;0.96;81.18;97382.96;104753;1273;61093;-21
2022/02/02 18:26:35;;;;;;;2.60;1.20;;;;;;;1.44;80.25;97382.73;104802;1274;74543;-22
2022/02/02 18:29:22;;;;;;;6.60;2.10;;;;;;;1.58;79.72;97389.77;104724;1273;74183;-22
2022/02/02 18:32:19;;;;;;;3.50;1.80;;;;;;;1.45;79.61;97392.30;104624;1274;61763;-22
2022/02/02 18:34:56;;;;;;;1.80;1.40;;;;;;;1.09;81.08;97394.23;104781;1273;61055;-22
2022/02/02 18:43:21;;;;;;;1.80;1.30;;;;;;;1.88;78.45;97403.55;104725;1273;74535;-22
2022/02/02 19:02:16;;;;;;;1.80;1.20;;;;;;;1.70;78.89;97422.02;104663;1273;61604;-22
2022/02/02 19:57:23;;;;;;;2.10;1.60;;;;;;;1.95;78.81;97449.30;104654;1273;61176;-22
2022/02/02 20:03:03;;;;;;;2.00;1.10;;;;;;;1.64;79.35;97453.73;105096;1273;75919;-22
2022/02/02 20:05:43;;;;;;;2.20;1.50;;;;;;;1.41;79.72;97458.40;105142;1273;74304;-22
2022/02/02 20:08:38;;;;;;;3.00;1.70;;;;;;;1.30;80.10;97463.21;104897;1273;62963;-22
2022/02/02 20:11:15;;;;;;;2.10;1.30;;;;;;;1.77;79.51;97468.21;105052;1273;62048;-22
2022/02/02 20:13:43;;;;;;;2.00;1.30;;;;;;;1.97;78.54;97472.14;104766;1273;75333;-22
2022/02/02 20:16:12;;;;;;;1.50;1.10;;;;;;;1.80;78.89;97477.44;104646;1273;75308;-22
2022/02/02 20:18:55;;;;;;;2.50;2.00;;;;;;;1.58;79.48;97481.00;104727;1273;74261;-23
2022/02/02 20:21:28;;;;;;;1.60;1.50;;;;;;;1.28;80.75;97483.39;104724;1273;61157;-22
2022/02/02 20:23:57;;;;;;;2.40;1.60;;;;;;;1.29;81.00;97479.17;104680;1273;61245;-24
2022/02/02 20:26:28;;;;;;;2.20;1.70;;;;;;;1.77;79.69;97480.68;104727;1273;73018;-22
2022/02/02 20:28:59;;;;;;;1.50;1.30;;;;;;;1.95;78.85;97484.21;104633;1273;72946;-23
2022/02/02 20:31:29;;;;;;;2.60;1.70;;;;;;;1.75;79.26;97486.49;104723;1273;74343;-23
2022/02/02 20:33:57;;;;;;;2.90;1.90;;;;;;;1.56;79.91;97486.27;104736;1273;61138;-23
2022/02/02 20:36:26;;;;;;;5.00;2.20;;;;;;;1.44;80.22;97493.08;104720;1273;61066;-22
2022/02/02 20:38:54;;;;;;;1.90;1.40;;;;;;;1.27;80.90;97494.04;104722;1273;75515;-22
2022/02/02 20:41:23;;;;;;;2.10;1.40;;;;;;;1.65;80.40;97500.54;104652;1273;76006;-23
2022/02/02 20:43:54;;;;;;;1.90;1.40;;;;;;;1.93;78.89;97506.28;104634;1273;73287;-23
2022/02/02 20:46:37;;;;;;;2.60;1.60;;;;;;;1.90;78.85;97503.42;104726;1273;61105;-23
2022/02/02 21:00:42;;;;;;;3.30;1.70;;;;;;;2.04;78.52;97519.34;104674;1273;61155;-25
2022/02/02 21:14:15;;;;;;;3.20;1.50;;;;;;;2.11;78.43;97525.42;104738;1273;61112;-23
2022/02/02 21:16:46;;;;;;;2.00;1.70;;;;;;;2.26;77.42;97527.23;104731;1273;62125;-23
2022/02/02 21:19:27;;;;;;;3.30;2.30;;;;;;;2.12;77.58;97528.54;104772;1273;74553;-23
2022/02/02 21:22:01;;;;;;;2.90;1.80;;;;;;;1.91;78.00;97528.14;104725;1273;75058;-25
2022/02/02 21:24:34;;;;;;;2.20;1.90;;;;;;;1.67;78.68;97530.65;104795;1273;74057;-23
2022/02/02 21:29:41;;;;;;;2.10;1.30;;;;;;;1.47;80.17;97543.66;104725;1273;61922;-23
2022/02/02 21:32:10;;;;;;;2.30;1.80;;;;;;;2.14;78.30;97543.11;104773;1273;75863;-23
2022/02/02 21:34:39;;;;;;;4.40;1.70;;;;;;;2.50;76.59;97550.86;104785;1273;75284;-23
2022/02/02 21:37:07;;;;;;;2.70;1.70;;;;;;;2.49;76.26;97559.34;104742;1272;72108;-23
2022/02/02 21:39:39;;;;;;;3.20;1.90;;;;;;;2.29;76.66;97567.82;104679;1273;62186;-23
2022/02/02 21:42:13;;;;;;;2.80;1.90;;;;;;;2.01;77.55;97568.86;104659;1273;61068;-23
2022/02/02 21:44:42;;;;;;;2.70;2.00;;;;;;;1.78;78.02;97568.05;104666;1273;75390;-23
2022/02/02 21:47:11;;;;;;;2.80;1.70;;;;;;;1.59;78.58;97569.37;104649;1272;76174;-22
2022/02/02 21:49:42;;;;;;;3.40;2.10;;;;;;;1.51;79.29;97573.31;104648;1273;74519;-22
2022/02/02 21:52:13;;;;;;;2.80;1.90;;;;;;;2.11;78.02;97579.65;104618;1273;61218;-22
2022/02/02 21:54:42;;;;;;;2.20;1.30;;;;;;;2.43;76.66;97583.77;104658;1273;60970;-23
2022/02/02 21:57:10;;;;;;;1.80;1.30;;;;;;;2.35;76.44;97582.98;104763;1273;74568;-22
2022/02/02 21:59:39;;;;;;;2.50;1.60;;;;;;;2.13;76.83;97580.23;104763;1273;75957;-24
2022/02/02 22:02:07;;;;;;;3.80;1.80;;;;;;;1.89;77.29;97581.15;104762;1273;74203;-25
2022/02/02 22:04:35;;;;;;;2.50;1.70;;;;;;;1.67;77.80;97583.55;104771;1273;61168;-25
2022/02/02 22:07:03;;;;;;;3.60;1.80;;;;;;;1.46;78.31;97579.17;104689;1273;61150;-23
2022/02/02 22:09:32;;;;;;;2.60;1.90;;;;;;;1.77;78.52;97585.45;104774;1273;75368;-25
2022/02/02 22:12:00;;;;;;;2.90;1.50;;;;;;;2.14;76.70;97581.52;104691;1273;76154;-22
2022/02/02 22:14:31;;;;;;;1.90;1.50;;;;;;;2.00;76.71;97575.77;104715;1273;73501;-25
2022/02/02 22:17:04;;;;;;;2.60;1.70;;;;;;;1.83;77.06;97584.67;104791;1273;61881;-25
2022/02/02 22:19:35;;;;;;;3.30;2.00;;;;;;;1.57;77.74;97587.96;104905;1273;62015;-26
2022/02/02 22:22:03;;;;;;;2.40;1.50;;;;;;;1.31;78.68;97585.74;104958;1273;74572;-25
2022/02/02 22:24:36;;;;;;;1.90;1.40;;;;;;;1.15;79.39;97589.20;105131;1273;75846;-25